createdAt,value
2022-09-23T00:00:45.236Z,4.07
2022-09-23T00:05:58.980Z,3.70
2022-09-23T00:11:05.867Z,3.92
2022-09-23T00:16:11.720Z,3.60
2022-09-23T00:21:15.757Z,4.00
2022-09-23T00:26:20.627Z,3.92
2022-09-23T00:31:25.857Z,4.30
2022-09-23T00:36:32.123Z,3.85
2022-09-23T00:41:36.060Z,3.50
2022-09-23T00:46:41.755Z,3.70
2022-09-23T00:51:51.417Z,4.80
2022-09-23T00:56:54.524Z,4.63
2022-09-23T01:01:58.497Z,4.20
2022-09-23T01:07:02.763Z,3.78
2022-09-23T01:12:12.492Z,3.80
2022-09-23T01:17:19.378Z,3.15
2022-09-23T01:22:28.497Z,3.42
2022-09-23T01:27:42.836Z,3.38
2022-09-23T01:32:58.773Z,3.15
2022-09-23T01:38:11.325Z,3.15
2022-09-23T01:43:17.096Z,3.03
2022-09-23T01:48:23.025Z,2.78
2022-09-23T01:53:33.063Z,2.97
2022-09-23T01:58:41.212Z,2.88
2022-09-23T02:03:50.005Z,2.88
2022-09-23T02:08:56.554Z,2.97
2022-09-23T02:14:03.138Z,3.20
2022-09-23T02:19:10.489Z,2.53
2022-09-23T02:24:15.745Z,2.35
2022-09-23T02:29:23.612Z,2.72
2022-09-23T02:34:36.264Z,2.45
2022-09-23T02:39:43.649Z,2.50
2022-09-23T02:44:46.658Z,2.45
2022-09-23T02:49:50.906Z,2.55
2022-09-23T02:54:53.734Z,2.47
2022-09-23T02:59:56.722Z,2.20
2022-09-23T03:05:06.942Z,2.50
2022-09-23T03:10:14.807Z,2.10
2022-09-23T03:15:23.894Z,2.10
2022-09-23T03:20:34.065Z,2.10
2022-09-23T03:25:38.637Z,2.40
2022-09-23T03:30:43.513Z,2.17
2022-09-23T03:36:10.935Z,2.28
2022-09-23T03:41:16.975Z,2.20
2022-09-23T03:46:19.830Z,2.22
2022-09-23T03:51:24.714Z,2.40
2022-09-23T03:56:27.849Z,2.20
2022-09-23T04:01:30.660Z,2.15
2022-09-23T04:06:34.726Z,2.28
2022-09-23T04:11:37.426Z,1.98
2022-09-23T04:16:40.268Z,2.13
2022-09-23T04:21:45.237Z,2.00
2022-09-23T04:26:51.321Z,1.90
2022-09-23T04:31:54.540Z,2.10
2022-09-23T04:36:58.629Z,2.10
2022-09-23T04:42:01.341Z,1.95
2022-09-23T04:47:04.361Z,2.00
2022-09-23T04:52:08.469Z,2.05
2022-09-23T04:57:11.244Z,2.00
2022-09-23T05:02:14.171Z,2.10
2022-09-23T05:07:19.114Z,2.10
2022-09-23T05:12:21.861Z,1.83
2022-09-23T05:17:24.533Z,2.03
2022-09-23T05:22:30.626Z,2.00
2022-09-23T05:27:33.278Z,1.95
2022-09-23T05:32:36.000Z,2.00
2022-09-23T05:37:40.341Z,2.25
2022-09-23T05:42:43.040Z,2.13
2022-09-23T05:47:45.686Z,1.92
2022-09-23T05:52:49.649Z,1.98
2022-09-23T05:57:52.318Z,2.08
2022-09-23T06:02:54.992Z,2.08
2022-09-23T06:07:59.288Z,2.30
2022-09-23T06:13:01.914Z,1.90
2022-09-23T06:18:05.414Z,1.95
2022-09-23T06:23:10.941Z,2.15
2022-09-23T06:28:14.486Z,1.95
2022-09-23T06:33:20.422Z,1.83
2022-09-23T06:38:31.165Z,2.10
2022-09-23T06:43:33.962Z,1.98
2022-09-23T06:48:36.570Z,1.90
2022-09-23T06:53:40.853Z,1.70
2022-09-23T06:58:43.563Z,1.77
2022-09-23T07:03:47.285Z,1.90
2022-09-23T07:08:53.156Z,1.80
2022-09-23T07:13:56.092Z,1.80
2022-09-23T07:18:59.048Z,1.70
2022-09-23T07:24:03.769Z,1.70
2022-09-23T07:29:06.550Z,1.50
2022-09-23T07:34:11.838Z,1.60
2022-09-23T07:39:16.070Z,1.60
2022-09-23T07:44:21.817Z,1.50
2022-09-23T07:49:24.541Z,1.60
2022-09-23T07:54:29.674Z,1.60
2022-09-23T07:59:32.291Z,1.80
2022-09-23T08:04:35.229Z,1.70
2022-09-23T08:09:41.593Z,1.60
2022-09-23T08:14:44.639Z,1.52
2022-09-23T08:19:47.240Z,1.70
2022-09-23T08:24:52.748Z,1.70
2022-09-23T08:29:57.226Z,1.80
2022-09-23T08:35:00.079Z,1.60
2022-09-23T08:40:04.624Z,3.28
2022-09-23T08:45:09.081Z,5.28
2022-09-23T08:50:14.875Z,4.43
2022-09-23T08:55:19.923Z,4.63
2022-09-23T09:00:24.608Z,4.72
2022-09-23T09:05:28.401Z,4.88
2022-09-23T09:10:36.726Z,4.65
2022-09-23T09:15:43.492Z,4.30
2022-09-23T09:20:50.291Z,4.43
2022-09-23T09:25:56.151Z,4.20
2022-09-23T09:31:02.440Z,4.53
2022-09-23T09:36:16.321Z,4.32
2022-09-23T09:41:21.456Z,4.28
2022-09-23T09:46:50.241Z,4.10
2022-09-23T09:52:12.969Z,4.15
2022-09-23T09:57:20.944Z,3.63
2022-09-23T10:02:28.349Z,3.45
2022-09-23T10:07:35.231Z,3.80
2022-09-23T10:12:47.194Z,3.13
2022-09-23T10:17:51.646Z,3.17
2022-09-23T10:22:56.630Z,2.90
2022-09-23T10:28:23.186Z,3.20
2022-09-23T10:33:27.997Z,2.90
2022-09-23T10:38:30.734Z,2.75
2022-09-23T10:43:56.803Z,3.00
2022-09-23T10:49:29.103Z,2.83
2022-09-23T10:54:37.806Z,2.95
2022-09-23T10:59:55.182Z,2.70
2022-09-23T11:05:20.830Z,2.22
2022-09-23T11:10:45.894Z,2.53
2022-09-23T11:15:57.160Z,2.80
2022-09-23T11:21:10.142Z,2.60
2022-09-23T11:26:26.857Z,2.60
2022-09-23T11:31:38.921Z,2.38
2022-09-23T11:36:45.306Z,2.53
2022-09-23T11:41:48.340Z,2.33
2022-09-23T11:46:56.881Z,2.38
2022-09-23T11:52:04.645Z,2.20
2022-09-23T11:57:11.546Z,2.30
2022-09-23T12:02:24.622Z,2.33
2022-09-23T12:07:35.743Z,2.13
2022-09-23T12:12:43.026Z,2.30
2022-09-23T12:18:04.969Z,2.10
2022-09-23T12:23:20.297Z,2.25
2022-09-23T12:28:26.146Z,2.03
2022-09-23T12:33:32.405Z,2.05
2022-09-23T12:38:36.849Z,1.83
2022-09-23T12:43:51.744Z,2.10
2022-09-23T12:49:03.622Z,2.00
2022-09-23T12:54:23.751Z,2.40
2022-09-23T12:59:28.214Z,2.00
2022-09-23T13:05:01.371Z,2.00
2022-09-23T13:10:09.409Z,2.22
2022-09-23T13:15:18.496Z,1.77
2022-09-23T13:20:38.329Z,1.80
2022-09-23T13:25:43.109Z,1.98
2022-09-23T13:30:49.575Z,1.70
2022-09-23T13:35:57.012Z,1.85
2022-09-23T13:41:02.428Z,2.00
2022-09-23T13:46:10.493Z,3.30
2022-09-23T13:51:20.502Z,4.40
2022-09-23T13:56:24.063Z,4.30
2022-09-23T14:01:32.409Z,4.00
2022-09-23T14:06:39.296Z,3.33
2022-09-23T14:11:42.175Z,3.13
2022-09-23T14:16:45.052Z,3.08
2022-09-23T14:21:51.273Z,3.17
2022-09-23T14:26:56.008Z,2.67
2022-09-23T14:32:03.146Z,2.80
2022-09-23T14:37:27.538Z,3.15
2022-09-23T14:42:31.080Z,4.80
2022-09-23T14:47:35.607Z,3.80
2022-09-23T14:52:49.787Z,3.67
2022-09-23T14:58:02.831Z,3.45
2022-09-23T15:03:14.586Z,2.85
2022-09-23T15:08:22.074Z,3.38
2022-09-23T15:13:28.495Z,3.10
2022-09-23T15:18:33.080Z,2.80
2022-09-23T15:23:45.400Z,3.00
2022-09-23T15:28:49.035Z,2.67
2022-09-23T15:33:52.073Z,2.97
2022-09-23T15:38:57.244Z,3.03
2022-09-23T15:44:04.446Z,2.90
2022-09-23T15:49:10.210Z,2.70
2022-09-23T15:54:14.666Z,2.50
2022-09-23T15:59:17.388Z,2.20
2022-09-23T16:04:20.414Z,2.38
2022-09-23T16:09:24.441Z,2.63
2022-09-23T16:14:27.074Z,2.45
2022-09-23T16:19:30.723Z,2.38
2022-09-23T16:24:34.767Z,2.55
2022-09-23T16:29:37.523Z,2.22
2022-09-23T16:34:40.212Z,2.80
2022-09-23T16:39:44.227Z,2.22
2022-09-23T16:44:47.047Z,2.00
2022-09-23T16:49:58.561Z,2.40
2022-09-23T16:55:02.605Z,2.03
2022-09-23T17:00:25.106Z,2.42
2022-09-23T17:05:27.791Z,2.20
2022-09-23T17:10:32.956Z,2.13
2022-09-23T17:15:37.069Z,2.13
2022-09-23T17:20:39.772Z,2.13
2022-09-23T17:25:48.361Z,2.10
2022-09-23T17:30:52.615Z,2.20
2022-09-23T17:35:56.655Z,1.98
2022-09-23T17:41:02.072Z,2.17
2022-09-23T17:46:06.442Z,1.77
2022-09-23T17:51:12.243Z,1.90
2022-09-23T17:56:17.707Z,1.90
2022-09-23T18:01:22.351Z,2.00
2022-09-23T18:06:26.340Z,2.10
2022-09-23T18:11:31.306Z,1.90
2022-09-23T18:16:36.645Z,2.00
2022-09-23T18:21:41.283Z,1.98
2022-09-23T18:26:45.915Z,2.03
2022-09-23T18:31:50.872Z,1.73
2022-09-23T18:36:55.963Z,2.10
2022-09-23T18:42:02.514Z,2.17
2022-09-23T18:47:05.255Z,1.80
2022-09-23T18:52:07.935Z,2.08
2022-09-23T18:57:13.143Z,1.90
2022-09-23T19:02:16.966Z,2.20
2022-09-23T19:07:19.683Z,1.95
2022-09-23T19:12:23.784Z,2.00
2022-09-23T19:17:26.514Z,2.50
2022-09-23T19:22:30.401Z,1.90
2022-09-23T19:27:35.192Z,2.00
2022-09-23T19:32:37.925Z,1.90
2022-09-23T19:37:40.607Z,2.00
2022-09-23T19:42:44.708Z,2.20
2022-09-23T19:47:47.339Z,2.08
2022-09-23T19:52:51.721Z,2.00
2022-09-23T19:57:55.697Z,1.90
2022-09-23T20:02:58.717Z,2.10
2022-09-23T20:08:01.935Z,2.30
2022-09-23T20:13:06.126Z,1.80
2022-09-23T20:18:10.089Z,2.20
2022-09-23T20:23:12.855Z,2.20
2022-09-23T20:28:17.440Z,2.15
2022-09-23T20:33:22.259Z,2.00
2022-09-23T20:38:24.932Z,2.08
2022-09-23T20:43:29.155Z,2.17
2022-09-23T20:48:32.311Z,2.45
2022-09-23T20:53:35.391Z,2.10
2022-09-23T20:58:40.186Z,2.20
2022-09-23T21:03:44.719Z,2.25
2022-09-23T21:08:47.655Z,2.10
2022-09-23T21:13:52.403Z,2.03
2022-09-23T21:18:55.075Z,2.10
2022-09-23T21:24:17.213Z,2.10
2022-09-23T21:29:22.991Z,2.17
2022-09-23T21:34:28.182Z,2.42
2022-09-23T21:39:30.884Z,2.20
2022-09-23T21:44:35.172Z,2.10
2022-09-23T21:49:37.848Z,2.45
2022-09-23T21:54:40.580Z,2.40
2022-09-23T21:59:44.554Z,2.60
2022-09-23T22:04:47.333Z,2.40
2022-09-23T22:09:50.113Z,2.28
2022-09-23T22:14:54.212Z,2.30
2022-09-23T22:19:57.183Z,2.70
2022-09-23T22:24:59.851Z,2.70
2022-09-23T22:30:21.468Z,2.72
2022-09-23T22:35:24.221Z,2.92
2022-09-23T22:40:27.003Z,2.92
2022-09-23T22:45:31.205Z,3.00
2022-09-23T22:50:33.955Z,3.08
2022-09-23T22:55:36.674Z,3.15
2022-09-23T23:00:40.729Z,2.92
2022-09-23T23:05:45.701Z,3.35
2022-09-23T23:10:48.592Z,2.88
2022-09-23T23:15:52.756Z,3.45
2022-09-23T23:20:57.232Z,3.50
2022-09-23T23:25:59.957Z,3.25
2022-09-23T23:31:05.433Z,3.50
2022-09-23T23:36:08.801Z,2.97
2022-09-23T23:41:13.009Z,3.50
2022-09-23T23:46:18.115Z,3.40
2022-09-23T23:51:21.591Z,3.70
2022-09-23T23:56:25.512Z,3.40
